createdAt,value
2018-05-08T00:01:50.851Z,100139.32
2018-05-08T00:04:18.533Z,100137.64
2018-05-08T00:06:46.191Z,100141.07
2018-05-08T00:09:14.058Z,100138.36
2018-05-08T00:11:41.771Z,100138.13
2018-05-08T00:14:09.584Z,100134.36
2018-05-08T00:16:37.348Z,100129.25
2018-05-08T00:19:05.071Z,100131.40
2018-05-08T00:21:32.884Z,100127.12
2018-05-08T00:24:00.630Z,100127.28
2018-05-08T00:26:28.350Z,100132.56
2018-05-08T00:28:56.113Z,100124.50
2018-05-08T00:31:23.931Z,100128.71
2018-05-08T00:33:51.647Z,100122.59
2018-05-08T00:36:19.464Z,100116.28
2018-05-08T00:38:47.180Z,100115.95
2018-05-08T00:41:14.995Z,100116.70
2018-05-08T00:43:42.862Z,100118.20
2018-05-08T00:46:10.523Z,100113.97
2018-05-08T00:48:38.251Z,100109.68
2018-05-08T00:51:05.943Z,100113.86
2018-05-08T00:53:33.656Z,100112.88
2018-05-08T00:56:01.473Z,100108.16
2018-05-08T00:58:29.146Z,100111.47
2018-05-08T01:00:56.905Z,100111.36
2018-05-08T01:03:24.664Z,100114.20
2018-05-08T01:05:52.435Z,100103.80
2018-05-08T01:08:20.301Z,100104.11
2018-05-08T01:10:48.027Z,100112.60
2018-05-08T01:13:15.831Z,100102.66
2018-05-08T01:15:43.594Z,100103.94
2018-05-08T01:18:11.360Z,100104.77
2018-05-08T01:20:39.066Z,100092.77
2018-05-08T01:23:06.786Z,100097.22
2018-05-08T01:25:34.550Z,100099.33
2018-05-08T01:28:02.315Z,100099.26
2018-05-08T01:30:30.080Z,100097.72
2018-05-08T01:32:57.798Z,100099.23
2018-05-08T01:35:25.608Z,100099.33
2018-05-08T01:37:53.476Z,100099.15
2018-05-08T01:40:21.133Z,100096.22
2018-05-08T01:42:48.902Z,100095.91
2018-05-08T01:45:16.627Z,100097.08
2018-05-08T01:47:44.328Z,100087.22
2018-05-08T01:50:12.094Z,100095.52
2018-05-08T01:52:39.859Z,100088.24
2018-05-08T01:55:07.724Z,100087.00
2018-05-08T01:57:35.382Z,100089.10
2018-05-08T02:00:03.152Z,100083.97
2018-05-08T02:02:31.022Z,100081.20
2018-05-08T02:04:58.886Z,100087.26
2018-05-08T02:07:26.540Z,100076.70
2018-05-08T02:09:54.297Z,100079.30
2018-05-08T02:12:22.076Z,100078.61
2018-05-08T02:14:49.841Z,100076.03
2018-05-08T02:17:17.552Z,100076.44
2018-05-08T02:19:45.379Z,100077.30
2018-05-08T02:22:13.136Z,100071.08
2018-05-08T02:24:40.901Z,100070.34
2018-05-08T02:27:08.663Z,100072.58
2018-05-08T02:29:36.409Z,100065.79
2018-05-08T02:32:04.192Z,100067.23
2018-05-08T02:34:32.060Z,100066.98
2018-05-08T02:36:59.824Z,100067.83
2018-05-08T02:39:27.483Z,100062.55
2018-05-08T02:41:55.164Z,100065.31
2018-05-08T02:44:23.012Z,100067.54
2018-05-08T02:46:50.727Z,100071.81
2018-05-08T02:49:18.545Z,100065.11
2018-05-08T02:51:46.309Z,100058.94
2018-05-08T02:54:14.073Z,100055.67
2018-05-08T02:56:41.838Z,100053.13
2018-05-08T02:59:09.602Z,100058.80
2018-05-08T03:01:37.365Z,100056.04
2018-05-08T03:04:05.091Z,100058.30
2018-05-08T03:06:32.901Z,100057.22
2018-05-08T03:09:00.727Z,100052.58
2018-05-08T03:11:28.528Z,100055.59
2018-05-08T03:13:56.291Z,100055.94
2018-05-08T03:16:24.161Z,100050.24
2018-05-08T03:18:51.869Z,100051.05
2018-05-08T03:21:19.684Z,100059.67
2018-05-08T03:23:47.343Z,100051.44
2018-05-08T03:26:15.113Z,100047.70
2018-05-08T03:28:42.840Z,100055.83
2018-05-08T03:31:10.642Z,100055.38
2018-05-08T03:33:38.406Z,100059.63
2018-05-08T03:36:06.234Z,100063.20
2018-05-08T03:38:34.037Z,100062.65
2018-05-08T03:41:01.868Z,100045.98
2018-05-08T03:43:29.569Z,100056.88
2018-05-08T03:45:57.332Z,100051.71
2018-05-08T03:48:25.092Z,100053.34
2018-05-08T03:50:52.850Z,100050.50
2018-05-08T03:53:20.625Z,100047.42
2018-05-08T03:55:48.287Z,100048.62
2018-05-08T03:58:16.051Z,100046.87
2018-05-08T04:00:55.592Z,100047.42
2018-05-08T04:03:35.030Z,100039.38
2018-05-08T04:09:03.220Z,100042.69
2018-05-08T04:11:31.091Z,100041.77
2018-05-08T04:13:58.754Z,100045.83
2018-05-08T04:16:26.525Z,100050.02
2018-05-08T04:18:54.171Z,100048.62
2018-05-08T04:21:22.014Z,100046.45
2018-05-08T04:23:49.751Z,100048.40
2018-05-08T04:26:17.680Z,100047.75
2018-05-08T04:28:45.384Z,100048.16
2018-05-08T04:31:13.155Z,100054.62
2018-05-08T04:33:40.968Z,100052.71
2018-05-08T04:36:08.834Z,100048.72
2018-05-08T04:38:36.550Z,100040.80
2018-05-08T04:41:04.298Z,100048.36
2018-05-08T04:43:32.058Z,100041.92
2018-05-08T04:45:59.715Z,100038.83
2018-05-08T04:48:27.517Z,100047.36
2018-05-08T04:50:55.323Z,100051.20
2018-05-08T04:53:23.089Z,100046.17
2018-05-08T04:55:50.934Z,100049.06
2018-05-08T04:58:18.722Z,100055.22
2018-05-08T05:00:46.587Z,100044.86
2018-05-08T05:03:15.170Z,100043.85
2018-05-08T05:05:42.935Z,100038.36
2018-05-08T05:08:10.700Z,100041.80
2018-05-08T05:10:38.561Z,100037.72
2018-05-08T05:13:06.284Z,100038.22
2018-05-08T05:15:33.985Z,100041.56
2018-05-08T05:18:01.718Z,100046.26
2018-05-08T05:20:29.433Z,100036.06
2018-05-08T05:22:57.183Z,100037.92
2018-05-08T05:25:25.027Z,100038.59
2018-05-08T05:27:52.612Z,100031.11
2018-05-08T05:30:20.801Z,100040.94
2018-05-08T05:32:48.553Z,100039.67
2018-05-08T05:35:16.413Z,100039.63
2018-05-08T05:37:44.131Z,100035.80
2018-05-08T05:40:11.945Z,100043.73
2018-05-08T05:42:39.851Z,100044.83
2018-05-08T05:45:07.680Z,100040.63
2018-05-08T05:47:35.546Z,100043.63
2018-05-08T05:50:03.286Z,100043.41
2018-05-08T05:52:31.076Z,100050.45
2018-05-08T05:54:58.799Z,100057.86
2018-05-08T05:57:26.604Z,100039.92
2018-05-08T05:59:54.335Z,100036.05
2018-05-08T06:02:22.134Z,100038.20
2018-05-08T06:04:49.797Z,100038.62
2018-05-08T06:07:17.672Z,100030.65
2018-05-08T06:09:45.527Z,100035.52
2018-05-08T06:12:13.396Z,100034.52
2018-05-08T06:14:41.162Z,100034.84
2018-05-08T06:17:08.927Z,100018.61
2018-05-08T06:19:36.739Z,100013.01
2018-05-08T06:22:04.555Z,100014.77
2018-05-08T06:24:32.324Z,100008.30
2018-05-08T06:26:59.981Z,100011.55
2018-05-08T06:29:27.709Z,100017.38
2018-05-08T06:31:55.400Z,100014.25
2018-05-08T06:34:23.174Z,100022.05
2018-05-08T06:36:51.041Z,100021.95
2018-05-08T06:39:18.807Z,100025.08
2018-05-08T06:41:46.644Z,100019.95
2018-05-08T06:44:14.457Z,100021.63
2018-05-08T06:46:42.331Z,100022.37
2018-05-08T06:49:10.175Z,100025.95
2018-05-08T06:51:37.945Z,100024.27
2018-05-08T06:54:05.595Z,100019.44
2018-05-08T06:56:33.362Z,100012.53
2018-05-08T06:59:01.029Z,100017.42
2018-05-08T07:01:28.785Z,100026.97
2018-05-08T07:03:56.509Z,100021.50
2018-05-08T07:06:24.318Z,100012.39
2018-05-08T07:08:52.082Z,100014.57
2018-05-08T07:11:19.845Z,100012.47
2018-05-08T07:13:47.613Z,100013.98
2018-05-08T07:16:15.536Z,100014.14
2018-05-08T07:18:43.139Z,100007.69
2018-05-08T07:21:10.901Z,100009.67
2018-05-08T07:23:38.558Z,100002.71
2018-05-08T07:26:06.434Z,100004.47
2018-05-08T07:28:34.138Z,99999.89
2018-05-08T07:31:01.954Z,99999.42
2018-05-08T07:33:29.766Z,100004.49
2018-05-08T07:35:57.483Z,100006.50
2018-05-08T07:38:25.204Z,100001.33
2018-05-08T07:40:53.019Z,100004.66
2018-05-08T07:43:20.784Z,100013.82
2018-05-08T07:45:48.569Z,100013.86
2018-05-08T07:48:16.415Z,100009.69
2018-05-08T07:50:44.144Z,100006.77
2018-05-08T07:53:11.842Z,100009.28
2018-05-08T07:55:39.607Z,100006.30
2018-05-08T07:58:07.266Z,100015.83
2018-05-08T08:00:34.931Z,100004.52
2018-05-08T08:03:02.687Z,100015.57
2018-05-08T08:05:30.351Z,100006.66
2018-05-08T08:07:58.117Z,100015.38
2018-05-08T08:10:25.886Z,100023.85
2018-05-08T08:12:53.752Z,100006.88
2018-05-08T08:15:21.518Z,100013.19
2018-05-08T08:17:49.385Z,100008.96
2018-05-08T08:20:17.253Z,100015.42
2018-05-08T08:22:44.915Z,100007.56
2018-05-08T08:25:12.683Z,100011.11
2018-05-08T08:27:40.447Z,100002.52
2018-05-08T08:30:08.208Z,100002.89
2018-05-08T08:32:36.024Z,99993.41
2018-05-08T08:35:03.850Z,99997.43
2018-05-08T08:37:31.707Z,99997.72
2018-05-08T08:39:59.365Z,99992.30
2018-05-08T08:42:27.093Z,99993.87
2018-05-08T08:44:54.897Z,99991.73
2018-05-08T08:47:22.603Z,99985.23
2018-05-08T08:49:50.324Z,99991.61
2018-05-08T08:52:18.092Z,99986.70
2018-05-08T08:54:45.807Z,99977.69
2018-05-08T08:57:13.573Z,99975.33
2018-05-08T08:59:41.282Z,99973.14
2018-05-08T09:02:08.942Z,99965.14
2018-05-08T09:04:36.648Z,99969.80
2018-05-08T09:07:04.369Z,99966.02
2018-05-08T09:09:32.032Z,99964.91
2018-05-08T09:11:59.848Z,99958.06
2018-05-08T09:14:27.663Z,99962.87
2018-05-08T09:16:55.387Z,99958.53
2018-05-08T09:19:23.193Z,99954.13
2018-05-08T09:21:50.854Z,99953.37
2018-05-08T09:24:18.563Z,99948.80
2018-05-08T09:26:46.385Z,99951.39
2018-05-08T09:29:14.216Z,99941.98
2018-05-08T09:31:41.911Z,99940.94
2018-05-08T09:34:09.677Z,99938.18
2018-05-08T09:36:38.322Z,99938.69
2018-05-08T09:39:06.948Z,99934.55
2018-05-08T09:41:34.813Z,99940.25
2018-05-08T09:44:03.004Z,99927.80
2018-05-08T09:46:30.753Z,99932.05
2018-05-08T09:48:58.517Z,99928.11
2018-05-08T09:51:26.283Z,99921.72
2018-05-08T09:53:54.045Z,99924.70
2018-05-08T09:56:21.811Z,99918.83
2018-05-08T09:58:49.466Z,99920.81
2018-05-08T10:01:17.241Z,99920.47
2018-05-08T10:03:45.179Z,99919.56
2018-05-08T10:06:12.972Z,99919.92
2018-05-08T10:08:40.735Z,99915.05
2018-05-08T10:11:08.461Z,99916.05
2018-05-08T10:13:36.265Z,99908.91
2018-05-08T10:16:03.926Z,99908.82
2018-05-08T10:18:31.567Z,99909.77
2018-05-08T10:20:59.252Z,99906.12
2018-05-08T10:23:27.022Z,99893.89
2018-05-08T10:25:54.686Z,99891.72
2018-05-08T10:28:22.430Z,99888.97
2018-05-08T10:30:50.320Z,99883.97
2018-05-08T10:33:18.177Z,99887.58
2018-05-08T10:35:45.836Z,99880.11
2018-05-08T10:38:13.498Z,99886.23
2018-05-08T10:40:41.131Z,99878.53
2018-05-08T10:43:09.028Z,99873.94
2018-05-08T10:45:36.793Z,99870.44
2018-05-08T10:48:04.454Z,99866.27
2018-05-08T10:50:32.221Z,99861.59
2018-05-08T10:53:00.086Z,99857.45
2018-05-08T10:55:27.847Z,99862.42
2018-05-08T10:57:55.557Z,99844.23
2018-05-08T11:00:23.174Z,99850.84
2018-05-08T11:02:50.935Z,99835.13
2018-05-08T11:05:18.708Z,99838.12
2018-05-08T11:07:46.572Z,99831.17
2018-05-08T11:10:14.233Z,99829.07
2018-05-08T11:12:41.986Z,99824.96
2018-05-08T11:15:09.657Z,99823.51
2018-05-08T11:17:37.368Z,99824.86
2018-05-08T11:20:05.189Z,99824.28
2018-05-08T11:22:33.006Z,99817.37
2018-05-08T11:25:00.819Z,99816.09
2018-05-08T11:27:28.687Z,99808.78
2018-05-08T11:29:56.403Z,99798.20
2018-05-08T11:32:24.216Z,99799.23
2018-05-08T11:34:51.980Z,99798.86
2018-05-08T11:37:20.359Z,99792.12
2018-05-08T11:39:48.072Z,99792.95
2018-05-08T11:42:15.888Z,99794.34
2018-05-08T11:44:43.844Z,99786.97
2018-05-08T11:47:11.511Z,99785.26
2018-05-08T11:49:39.290Z,99773.09
2018-05-08T11:52:07.050Z,99777.94
2018-05-08T11:54:34.709Z,99775.45
2018-05-08T11:57:02.367Z,99771.44
2018-05-08T11:59:30.038Z,99770.13
2018-05-08T12:01:57.904Z,99757.70
2018-05-08T12:04:25.668Z,99755.48
2018-05-08T12:06:53.332Z,99762.38
2018-05-08T12:09:21.095Z,99759.09
2018-05-08T12:11:48.794Z,99745.29
2018-05-08T12:14:16.514Z,99749.75
2018-05-08T12:16:44.229Z,99747.17
2018-05-08T12:19:12.047Z,99743.64
2018-05-08T12:21:39.768Z,99740.60
2018-05-08T12:24:07.575Z,99734.48
2018-05-08T12:26:35.426Z,99725.19
2018-05-08T12:29:03.110Z,99727.30
2018-05-08T12:31:30.859Z,99716.43
2018-05-08T12:33:58.521Z,99731.27
2018-05-08T12:36:26.467Z,99729.39
2018-05-08T12:38:54.275Z,99718.81
2018-05-08T12:41:21.927Z,99720.66
2018-05-08T12:43:49.687Z,99707.07
2018-05-08T12:46:17.458Z,99712.59
2018-05-08T12:48:45.324Z,99705.12
2018-05-08T12:51:12.992Z,99707.59
2018-05-08T12:53:40.752Z,99699.22
2018-05-08T12:56:08.469Z,99706.63
2018-05-08T12:58:36.221Z,99687.06
2018-05-08T13:01:04.077Z,99692.36
2018-05-08T13:03:31.809Z,99688.08
2018-05-08T13:05:59.472Z,99698.63
2018-05-08T13:08:27.339Z,99689.69
2018-05-08T13:10:55.078Z,99679.56
2018-05-08T13:13:22.865Z,99690.70
2018-05-08T13:15:50.633Z,99681.24
2018-05-08T13:18:18.509Z,99683.05
2018-05-08T13:20:46.263Z,99682.27
2018-05-08T13:23:14.028Z,99679.45
2018-05-08T13:25:41.682Z,99677.34
2018-05-08T13:28:09.454Z,99673.15
2018-05-08T13:30:37.116Z,99669.61
2018-05-08T13:33:04.779Z,99675.83
2018-05-08T13:35:32.435Z,99673.84
2018-05-08T13:38:00.923Z,99666.92
2018-05-08T13:40:28.637Z,99659.45
2018-05-08T13:42:56.405Z,99656.21
2018-05-08T13:45:24.113Z,99658.58
2018-05-08T13:47:51.842Z,99654.98
2018-05-08T13:50:19.750Z,99648.55
2018-05-08T13:52:47.512Z,99639.25
2018-05-08T13:55:15.179Z,99635.83
2018-05-08T13:57:43.040Z,99629.81
2018-05-08T14:00:10.726Z,99632.59
2018-05-08T14:02:38.569Z,99633.08
2018-05-08T14:05:06.334Z,99628.42
2018-05-08T14:07:34.050Z,99626.48
2018-05-08T14:10:01.757Z,99625.58
2018-05-08T14:12:29.526Z,99625.55
2018-05-08T14:14:57.296Z,99627.33
2018-05-08T14:17:25.153Z,99629.56
2018-05-08T14:19:52.864Z,99619.29
2018-05-08T14:22:20.683Z,99617.73
2018-05-08T14:24:48.482Z,99613.72
2018-05-08T14:27:16.213Z,99612.66
2018-05-08T14:29:44.186Z,99612.72
2018-05-08T14:32:11.791Z,99609.43
2018-05-08T14:34:39.473Z,99605.23
2018-05-08T14:37:07.098Z,99602.52
2018-05-08T14:39:34.832Z,99602.55
2018-05-08T14:42:02.488Z,99597.47
2018-05-08T14:44:30.257Z,99592.77
2018-05-08T14:46:58.329Z,99588.32
2018-05-08T14:49:26.134Z,99592.03
2018-05-08T14:51:53.809Z,99594.77
2018-05-08T14:54:21.519Z,99579.74
2018-05-08T14:56:49.181Z,99584.98
2018-05-08T14:59:17.040Z,99583.02
2018-05-08T15:01:44.823Z,99574.45
2018-05-08T15:04:12.659Z,99570.22
2018-05-08T15:06:40.857Z,99569.78
2018-05-08T15:09:08.620Z,99566.55
2018-05-08T15:11:36.353Z,99562.66
2018-05-08T15:14:04.639Z,99561.52
2018-05-08T15:16:32.429Z,99567.58
2018-05-08T15:21:55.963Z,99564.19
2018-05-08T15:24:23.745Z,99565.41
2018-05-08T15:26:51.400Z,99570.15
2018-05-08T15:29:19.166Z,99566.26
2018-05-08T15:31:47.323Z,99568.81
2018-05-08T15:34:15.047Z,99562.91
2018-05-08T15:36:42.776Z,99547.34
2018-05-08T15:39:10.537Z,99557.47
2018-05-08T15:41:38.199Z,99552.11
2018-05-08T15:44:06.168Z,99546.69
2018-05-08T15:46:33.830Z,99545.94
2018-05-08T15:49:01.598Z,99543.35
2018-05-08T15:51:29.360Z,99536.06
2018-05-08T15:53:57.227Z,99537.55
2018-05-08T15:56:24.950Z,99530.84
2018-05-08T15:58:52.755Z,99535.99
2018-05-08T16:01:20.519Z,99534.45
2018-05-08T16:03:48.285Z,99535.04
2018-05-08T16:06:15.892Z,99523.84
2018-05-08T16:08:43.603Z,99523.48
2018-05-08T16:11:11.199Z,99523.98
2018-05-08T16:13:39.034Z,99524.98
2018-05-08T16:16:06.734Z,99523.18
2018-05-08T16:18:34.555Z,99521.94
2018-05-08T16:21:02.254Z,99529.63
2018-05-08T16:23:30.093Z,99515.79
2018-05-08T16:25:57.753Z,99521.86
2018-05-08T16:28:25.621Z,99521.84
2018-05-08T16:30:53.286Z,99517.38
2018-05-08T16:33:21.560Z,99516.75
2018-05-08T16:35:49.332Z,99508.02
2018-05-08T16:38:17.044Z,99505.48
2018-05-08T16:40:44.853Z,99516.77
2018-05-08T16:43:12.576Z,99522.99
2018-05-08T16:45:40.385Z,99522.67
2018-05-08T16:48:08.297Z,99512.08
2018-05-08T16:50:36.220Z,99513.42
2018-05-08T16:53:03.881Z,99515.23
2018-05-08T16:55:31.957Z,99513.05
2018-05-08T16:57:59.723Z,99507.59
2018-05-08T17:00:27.480Z,99514.91
2018-05-08T17:02:55.167Z,99508.78
2018-05-08T17:05:23.014Z,99516.35
2018-05-08T17:07:50.746Z,99507.77
2018-05-08T17:10:18.489Z,99508.73
2018-05-08T17:12:46.307Z,99507.69
2018-05-08T17:15:13.967Z,99507.67
2018-05-08T17:17:41.737Z,99510.02
2018-05-08T17:20:09.488Z,99508.24
2018-05-08T17:22:37.262Z,99506.44
2018-05-08T17:25:05.026Z,99507.40
2018-05-08T17:27:32.805Z,99509.31
2018-05-08T17:30:00.524Z,99505.73
2018-05-08T17:32:28.216Z,99505.95
2018-05-08T17:34:55.878Z,99495.25
2018-05-08T17:37:23.643Z,99500.98
2018-05-08T17:39:51.371Z,99503.83
2018-05-08T17:42:19.064Z,99501.86
2018-05-08T17:44:46.732Z,99499.76
2018-05-08T17:47:14.444Z,99497.57
2018-05-08T17:49:42.265Z,99496.59
2018-05-08T17:52:10.125Z,99497.95
2018-05-08T17:54:37.685Z,99496.88
2018-05-08T17:57:05.683Z,99492.34
2018-05-08T17:59:33.730Z,99490.57
2018-05-08T18:02:01.494Z,99494.60
2018-05-08T18:04:29.215Z,99491.34
2018-05-08T18:06:56.921Z,99494.19
2018-05-08T18:09:24.583Z,99492.26
2018-05-08T18:11:52.344Z,99491.77
2018-05-08T18:14:20.111Z,99488.42
2018-05-08T18:16:47.875Z,99491.59
2018-05-08T18:19:15.747Z,99495.19
2018-05-08T18:21:43.395Z,99504.09
2018-05-08T18:24:11.271Z,99501.25
2018-05-08T18:26:39.035Z,99497.05
2018-05-08T18:29:06.809Z,99494.85
2018-05-08T18:31:34.675Z,99495.44
2018-05-08T18:34:02.455Z,99499.89
2018-05-08T18:36:30.197Z,99501.16
2018-05-08T18:38:57.968Z,99511.09
2018-05-08T18:41:25.621Z,99499.14
2018-05-08T18:43:53.339Z,99502.27
2018-05-08T18:46:21.187Z,99512.44
2018-05-08T18:48:48.916Z,99503.30
2018-05-08T18:51:16.576Z,99507.73
2018-05-08T18:53:44.750Z,99508.55
2018-05-08T18:56:12.529Z,99511.56
2018-05-08T18:58:40.390Z,99503.39
2018-05-08T19:01:08.254Z,99505.66
2018-05-08T19:03:36.126Z,99502.36
2018-05-08T19:06:03.904Z,99505.28
2018-05-08T19:08:31.677Z,99499.13
2018-05-08T19:11:05.050Z,99505.42
2018-05-08T19:13:32.918Z,99512.70
2018-05-08T19:16:05.903Z,99513.81
2018-05-08T19:18:39.403Z,99516.66
2018-05-08T19:21:07.211Z,99516.77
2018-05-08T19:23:35.203Z,99511.17
2018-05-08T19:26:03.113Z,99513.00
2018-05-08T19:28:36.409Z,99521.72
2018-05-08T19:31:04.259Z,99519.89
2018-05-08T19:33:32.038Z,99524.20
2018-05-08T19:36:05.471Z,99525.30
2018-05-08T19:38:33.297Z,99529.17
2018-05-08T19:41:01.164Z,99528.75
2018-05-08T19:43:28.923Z,99526.16
2018-05-08T19:45:56.789Z,99530.64
2018-05-08T19:48:24.662Z,99529.50
2018-05-08T19:50:52.528Z,99525.22
2018-05-08T19:53:20.360Z,99528.45
2018-05-08T19:55:48.262Z,99532.80
2018-05-08T19:58:16.129Z,99526.91
2018-05-08T20:00:43.991Z,99529.97
2018-05-08T20:03:11.761Z,99528.02
2018-05-08T20:05:39.628Z,99526.30
2018-05-08T20:08:07.451Z,99525.77
2018-05-08T20:10:35.249Z,99530.77
2018-05-08T20:13:11.171Z,99523.53
2018-05-08T20:15:38.973Z,99534.73
2018-05-08T20:18:06.737Z,99527.94
2018-05-08T20:20:34.504Z,99523.17
2018-05-08T20:23:02.471Z,99530.47
2018-05-08T20:25:30.159Z,99519.63
2018-05-08T20:27:57.843Z,99524.03
2018-05-08T20:30:25.487Z,99532.57
2018-05-08T20:32:53.120Z,99531.52
2018-05-08T20:35:20.787Z,99531.67
2018-05-08T20:37:48.399Z,99529.72
2018-05-08T20:40:16.208Z,99532.31
2018-05-08T20:42:43.927Z,99531.91
2018-05-08T20:45:11.737Z,99537.05
2018-05-08T20:47:39.399Z,99528.27
2018-05-08T20:50:07.271Z,99529.39
2018-05-08T20:52:34.996Z,99537.41
2018-05-08T20:55:02.796Z,99533.56
2018-05-08T20:57:30.561Z,99535.83
2018-05-08T20:59:58.953Z,99532.60
2018-05-08T21:02:26.703Z,99537.91
2018-05-08T21:04:54.557Z,99540.34
2018-05-08T21:07:22.439Z,99536.92
2018-05-08T21:09:50.101Z,99534.53
2018-05-08T21:12:17.765Z,99535.55
2018-05-08T21:14:46.654Z,99539.40
2018-05-08T21:17:14.327Z,99535.84
2018-05-08T21:19:42.083Z,99538.20
2018-05-08T21:22:09.842Z,99539.22
2018-05-08T21:24:37.565Z,99539.92
2018-05-08T21:27:05.339Z,99536.26
2018-05-08T21:29:38.563Z,99539.31
2018-05-08T21:32:06.436Z,99538.19
2018-05-08T21:34:34.068Z,99540.21
2018-05-08T21:37:01.755Z,99539.73
2018-05-08T21:39:30.201Z,99532.86
2018-05-08T21:41:57.899Z,99538.58
2018-05-08T21:44:25.663Z,99536.08
2018-05-08T21:46:53.318Z,99529.25
2018-05-08T21:49:20.987Z,99533.04
2018-05-08T21:51:48.652Z,99524.95
2018-05-08T21:54:16.469Z,99521.95
2018-05-08T21:56:44.178Z,99525.47
2018-05-08T21:59:12.047Z,99524.03
2018-05-08T22:01:39.705Z,99522.98
2018-05-08T22:04:07.477Z,99526.01
2018-05-08T22:06:35.279Z,99528.81
2018-05-08T22:09:02.904Z,99529.45
2018-05-08T22:11:30.765Z,99528.09
2018-05-08T22:13:58.474Z,99528.19
2018-05-08T22:16:26.203Z,99526.94
2018-05-08T22:18:53.858Z,99521.55
2018-05-08T22:21:21.723Z,99525.17
2018-05-08T22:23:49.490Z,99523.09
2018-05-08T22:26:17.313Z,99527.97
2018-05-08T22:28:45.118Z,99520.31
2018-05-08T22:31:12.786Z,99525.30
2018-05-08T22:33:40.542Z,99528.09
2018-05-08T22:36:08.255Z,99516.86
2018-05-08T22:38:35.963Z,99519.80
2018-05-08T22:41:03.734Z,99513.34
2018-05-08T22:43:31.372Z,99512.11
2018-05-08T22:45:59.165Z,99509.93
2018-05-08T22:48:26.889Z,99515.52
2018-05-08T22:50:54.688Z,99517.28
2018-05-08T22:53:22.352Z,99512.97
2018-05-08T22:55:50.065Z,99512.55
2018-05-08T22:58:17.777Z,99512.73
2018-05-08T23:00:45.645Z,99511.62
2018-05-08T23:03:13.366Z,99504.87
2018-05-08T23:05:41.075Z,99502.25
2018-05-08T23:08:08.739Z,99500.28
2018-05-08T23:10:36.601Z,99496.86
2018-05-08T23:13:04.475Z,99494.27
2018-05-08T23:15:32.454Z,99495.41
2018-05-08T23:18:00.312Z,99496.73
2018-05-08T23:20:28.131Z,99501.03
2018-05-08T23:22:55.936Z,99492.38
2018-05-08T23:25:23.702Z,99492.23
2018-05-08T23:27:51.409Z,99495.69
2018-05-08T23:30:19.232Z,99495.58
2018-05-08T23:32:47.049Z,99498.11
2018-05-08T23:35:14.763Z,99503.80
2018-05-08T23:37:42.524Z,99508.39
2018-05-08T23:40:10.343Z,99503.00
2018-05-08T23:42:38.055Z,99498.03
2018-05-08T23:45:05.753Z,99498.65
2018-05-08T23:47:33.694Z,99493.05
2018-05-08T23:50:01.550Z,99498.53
2018-05-08T23:52:29.219Z,99501.73
2018-05-08T23:54:57.069Z,99496.94
2018-05-08T23:57:24.787Z,99498.02
2018-05-08T23:59:52.608Z,99499.42
